sensor_id;sensor_type;location;lat;lon;timestamp;P1;durP1;ratioP1;P2;durP2;ratioP2
18084;SDS011;9169;44.492;11.372;2022-10-18T00:00:13;84.30;;;33.90;;
18084;SDS011;9169;44.492;11.372;2022-10-18T00:02:40;89.43;;;36.77;;
18084;SDS011;9169;44.492;11.372;2022-10-18T00:05:07;90.30;;;38.97;;
18084;SDS011;9169;44.492;11.372;2022-10-18T00:07:34;87.17;;;39.00;;
18084;SDS011;9169;44.492;11.372;2022-10-18T00:10:01;88.30;;;39.07;;
18084;SDS011;9169;44.492;11.372;2022-10-18T00:12:32;84.20;;;36.10;;
18084;SDS011;9169;44.492;11.372;2022-10-18T00:14:59;87.27;;;40.80;;
18084;SDS011;9169;44.492;11.372;2022-10-18T00:17:26;83.90;;;34.57;;
18084;SDS011;9169;44.492;11.372;2022-10-18T00:19:53;84.70;;;33.70;;
18084;SDS011;9169;44.492;11.372;2022-10-18T00:22:20;88.23;;;35.07;;
18084;SDS011;9169;44.492;11.372;2022-10-18T00:24:48;83.87;;;33.03;;
18084;SDS011;9169;44.492;11.372;2022-10-18T00:27:15;83.77;;;34.83;;
18084;SDS011;9169;44.492;11.372;2022-10-18T00:29:44;85.40;;;34.30;;
18084;SDS011;9169;44.492;11.372;2022-10-18T00:32:11;85.33;;;33.30;;
18084;SDS011;9169;44.492;11.372;2022-10-18T00:34:38;84.77;;;33.27;;
18084;SDS011;9169;44.492;11.372;2022-10-18T00:37:05;87.10;;;32.10;;
18084;SDS011;9169;44.492;11.372;2022-10-18T00:39:32;86.27;;;34.43;;
18084;SDS011;9169;44.492;11.372;2022-10-18T00:41:59;90.83;;;32.00;;
18084;SDS011;9169;44.492;11.372;2022-10-18T00:47:29;85.70;;;34.97;;
18084;SDS011;9169;44.492;11.372;2022-10-18T00:49:57;84.97;;;35.60;;
18084;SDS011;9169;44.492;11.372;2022-10-18T00:52:28;89.50;;;37.23;;
18084;SDS011;9169;44.492;11.372;2022-10-18T00:55:00;86.63;;;32.87;;
18084;SDS011;9169;44.492;11.372;2022-10-18T00:57:28;88.67;;;34.27;;
18084;SDS011;9169;44.492;11.372;2022-10-18T00:59:55;85.80;;;34.73;;
18084;SDS011;9169;44.492;11.372;2022-10-18T01:02:24;83.07;;;34.30;;
18084;SDS011;9169;44.492;11.372;2022-10-18T01:04:51;89.47;;;32.90;;
18084;SDS011;9169;44.492;11.372;2022-10-18T01:07:22;85.03;;;32.77;;
18084;SDS011;9169;44.492;11.372;2022-10-18T01:09:59;86.60;;;33.80;;
18084;SDS011;9169;44.492;11.372;2022-10-18T01:12:46;88.17;;;34.00;;
18084;SDS011;9169;44.492;11.372;2022-10-18T01:15:20;86.13;;;32.33;;
18084;SDS011;9169;44.492;11.372;2022-10-18T01:18:05;83.67;;;33.27;;
18084;SDS011;9169;44.492;11.372;2022-10-18T01:20:50;85.37;;;35.57;;
18084;SDS011;9169;44.492;11.372;2022-10-18T01:23:44;85.47;;;34.70;;
18084;SDS011;9169;44.492;11.372;2022-10-18T01:26:40;85.40;;;33.27;;
18084;SDS011;9169;44.492;11.372;2022-10-18T01:29:39;85.00;;;35.40;;
18084;SDS011;9169;44.492;11.372;2022-10-18T01:32:18;83.77;;;35.40;;
18084;SDS011;9169;44.492;11.372;2022-10-18T01:34:49;88.73;;;33.97;;
18084;SDS011;9169;44.492;11.372;2022-10-18T01:37:18;85.67;;;34.80;;
18084;SDS011;9169;44.492;11.372;2022-10-18T01:39:49;85.17;;;31.83;;
18084;SDS011;9169;44.492;11.372;2022-10-18T01:42:20;82.27;;;33.37;;
18084;SDS011;9169;44.492;11.372;2022-10-18T01:44:49;81.47;;;30.60;;
18084;SDS011;9169;44.492;11.372;2022-10-18T01:47:20;85.13;;;29.17;;
18084;SDS011;9169;44.492;11.372;2022-10-18T01:49:48;79.57;;;28.63;;
18084;SDS011;9169;44.492;11.372;2022-10-18T01:52:21;81.77;;;29.03;;
18084;SDS011;9169;44.492;11.372;2022-10-18T01:54:48;85.13;;;32.93;;
18084;SDS011;9169;44.492;11.372;2022-10-18T01:57:17;81.90;;;31.33;;
18084;SDS011;9169;44.492;11.372;2022-10-18T01:59:50;85.30;;;30.07;;
18084;SDS011;9169;44.492;11.372;2022-10-18T02:02:27;84.47;;;28.23;;
18084;SDS011;9169;44.492;11.372;2022-10-18T02:05:05;81.67;;;29.60;;
18084;SDS011;9169;44.492;11.372;2022-10-18T02:07:38;84.23;;;29.90;;
18084;SDS011;9169;44.492;11.372;2022-10-18T02:10:11;83.43;;;27.97;;
18084;SDS011;9169;44.492;11.372;2022-10-18T02:12:44;83.00;;;31.43;;
18084;SDS011;9169;44.492;11.372;2022-10-18T02:15:13;86.50;;;29.00;;
18084;SDS011;9169;44.492;11.372;2022-10-18T02:17:46;83.30;;;29.70;;
18084;SDS011;9169;44.492;11.372;2022-10-18T02:20:14;81.47;;;27.87;;
18084;SDS011;9169;44.492;11.372;2022-10-18T02:22:45;82.17;;;29.40;;
18084;SDS011;9169;44.492;11.372;2022-10-18T02:25:16;81.50;;;30.20;;
18084;SDS011;9169;44.492;11.372;2022-10-18T02:27:46;84.47;;;29.83;;
18084;SDS011;9169;44.492;11.372;2022-10-18T02:30:13;87.37;;;31.80;;
18084;SDS011;9169;44.492;11.372;2022-10-18T02:32:42;82.77;;;27.90;;
18084;SDS011;9169;44.492;11.372;2022-10-18T02:35:16;83.97;;;28.10;;
18084;SDS011;9169;44.492;11.372;2022-10-18T02:37:47;83.30;;;28.73;;
18084;SDS011;9169;44.492;11.372;2022-10-18T02:40:15;84.50;;;27.40;;
18084;SDS011;9169;44.492;11.372;2022-10-18T02:42:43;82.87;;;29.20;;
18084;SDS011;9169;44.492;11.372;2022-10-18T02:45:12;80.40;;;26.83;;
18084;SDS011;9169;44.492;11.372;2022-10-18T02:47:40;83.90;;;31.30;;
18084;SDS011;9169;44.492;11.372;2022-10-18T02:50:08;81.17;;;26.93;;
18084;SDS011;9169;44.492;11.372;2022-10-18T02:52:35;78.17;;;26.80;;
18084;SDS011;9169;44.492;11.372;2022-10-18T02:55:03;81.20;;;26.70;;
18084;SDS011;9169;44.492;11.372;2022-10-18T02:57:31;83.80;;;25.37;;
18084;SDS011;9169;44.492;11.372;2022-10-18T02:59:58;81.63;;;27.10;;
18084;SDS011;9169;44.492;11.372;2022-10-18T03:02:25;85.10;;;28.63;;
18084;SDS011;9169;44.492;11.372;2022-10-18T03:04:52;81.93;;;29.07;;
18084;SDS011;9169;44.492;11.372;2022-10-18T03:07:20;79.67;;;27.20;;
18084;SDS011;9169;44.492;11.372;2022-10-18T03:09:47;82.70;;;28.77;;
18084;SDS011;9169;44.492;11.372;2022-10-18T03:12:14;87.30;;;26.27;;
18084;SDS011;9169;44.492;11.372;2022-10-18T03:14:41;78.37;;;27.10;;
18084;SDS011;9169;44.492;11.372;2022-10-18T03:17:08;81.07;;;27.43;;
18084;SDS011;9169;44.492;11.372;2022-10-18T03:19:35;83.63;;;28.47;;
18084;SDS011;9169;44.492;11.372;2022-10-18T03:22:03;79.73;;;27.60;;
18084;SDS011;9169;44.492;11.372;2022-10-18T03:24:32;88.67;;;30.13;;
18084;SDS011;9169;44.492;11.372;2022-10-18T03:26:59;81.60;;;24.83;;
18084;SDS011;9169;44.492;11.372;2022-10-18T03:29:27;83.13;;;27.17;;
18084;SDS011;9169;44.492;11.372;2022-10-18T03:31:54;81.33;;;26.57;;
18084;SDS011;9169;44.492;11.372;2022-10-18T03:34:21;82.03;;;26.40;;
18084;SDS011;9169;44.492;11.372;2022-10-18T03:36:48;82.00;;;28.67;;
18084;SDS011;9169;44.492;11.372;2022-10-18T03:39:15;82.40;;;25.87;;
18084;SDS011;9169;44.492;11.372;2022-10-18T03:41:43;84.13;;;28.50;;
18084;SDS011;9169;44.492;11.372;2022-10-18T03:44:10;80.97;;;28.03;;
18084;SDS011;9169;44.492;11.372;2022-10-18T03:46:37;81.57;;;28.70;;
18084;SDS011;9169;44.492;11.372;2022-10-18T03:49:04;86.70;;;28.97;;
18084;SDS011;9169;44.492;11.372;2022-10-18T03:51:31;83.23;;;28.67;;
18084;SDS011;9169;44.492;11.372;2022-10-18T03:53:58;81.10;;;27.13;;
18084;SDS011;9169;44.492;11.372;2022-10-18T03:56:26;84.53;;;28.47;;
18084;SDS011;9169;44.492;11.372;2022-10-18T03:58:54;82.60;;;27.27;;
18084;SDS011;9169;44.492;11.372;2022-10-18T04:01:22;82.10;;;27.97;;
18084;SDS011;9169;44.492;11.372;2022-10-18T04:03:49;82.73;;;26.10;;
18084;SDS011;9169;44.492;11.372;2022-10-18T04:06:16;83.40;;;25.70;;
18084;SDS011;9169;44.492;11.372;2022-10-18T04:08:43;79.40;;;25.60;;
18084;SDS011;9169;44.492;11.372;2022-10-18T04:11:09;80.30;;;28.77;;
18084;SDS011;9169;44.492;11.372;2022-10-18T04:13:36;87.00;;;28.07;;
18084;SDS011;9169;44.492;11.372;2022-10-18T04:16:05;82.13;;;27.50;;
18084;SDS011;9169;44.492;11.372;2022-10-18T04:18:32;83.10;;;26.60;;
18084;SDS011;9169;44.492;11.372;2022-10-18T04:20:59;82.27;;;27.10;;
18084;SDS011;9169;44.492;11.372;2022-10-18T04:23:26;83.43;;;25.80;;
18084;SDS011;9169;44.492;11.372;2022-10-18T04:25:53;81.80;;;28.43;;
18084;SDS011;9169;44.492;11.372;2022-10-18T04:28:20;83.00;;;27.23;;
18084;SDS011;9169;44.492;11.372;2022-10-18T04:30:50;80.10;;;26.17;;
18084;SDS011;9169;44.492;11.372;2022-10-18T04:33:19;80.53;;;25.30;;
18084;SDS011;9169;44.492;11.372;2022-10-18T04:35:46;82.07;;;27.13;;
18084;SDS011;9169;44.492;11.372;2022-10-18T04:38:16;79.70;;;26.27;;
18084;SDS011;9169;44.492;11.372;2022-10-18T04:40:43;77.43;;;25.00;;
18084;SDS011;9169;44.492;11.372;2022-10-18T04:43:10;79.20;;;24.83;;
18084;SDS011;9169;44.492;11.372;2022-10-18T04:45:37;81.00;;;27.70;;
18084;SDS011;9169;44.492;11.372;2022-10-18T04:48:05;78.20;;;26.37;;
18084;SDS011;9169;44.492;11.372;2022-10-18T04:50:34;85.03;;;25.37;;
18084;SDS011;9169;44.492;11.372;2022-10-18T04:53:01;80.17;;;24.17;;
18084;SDS011;9169;44.492;11.372;2022-10-18T04:55:28;81.83;;;25.87;;
18084;SDS011;9169;44.492;11.372;2022-10-18T04:57:54;80.70;;;25.30;;
18084;SDS011;9169;44.492;11.372;2022-10-18T05:00:21;80.03;;;26.77;;
18084;SDS011;9169;44.492;11.372;2022-10-18T05:02:48;84.00;;;25.47;;
18084;SDS011;9169;44.492;11.372;2022-10-18T05:05:15;83.20;;;27.93;;
18084;SDS011;9169;44.492;11.372;2022-10-18T05:07:44;84.50;;;26.50;;
18084;SDS011;9169;44.492;11.372;2022-10-18T05:10:11;89.30;;;27.27;;
18084;SDS011;9169;44.492;11.372;2022-10-18T05:12:38;83.10;;;26.97;;
18084;SDS011;9169;44.492;11.372;2022-10-18T05:15:05;86.07;;;26.30;;
18084;SDS011;9169;44.492;11.372;2022-10-18T05:17:32;82.10;;;29.87;;
18084;SDS011;9169;44.492;11.372;2022-10-18T05:19:59;82.40;;;26.80;;
18084;SDS011;9169;44.492;11.372;2022-10-18T05:22:26;81.20;;;27.60;;
18084;SDS011;9169;44.492;11.372;2022-10-18T05:24:54;81.53;;;26.50;;
18084;SDS011;9169;44.492;11.372;2022-10-18T05:27:21;84.47;;;26.73;;
18084;SDS011;9169;44.492;11.372;2022-10-18T05:29:48;82.07;;;27.77;;
18084;SDS011;9169;44.492;11.372;2022-10-18T05:32:15;81.97;;;25.30;;
18084;SDS011;9169;44.492;11.372;2022-10-18T05:34:42;156.87;;;96.07;;
18084;SDS011;9169;44.492;11.372;2022-10-18T05:37:09;86.13;;;27.13;;
18084;SDS011;9169;44.492;11.372;2022-10-18T05:39:36;85.20;;;26.30;;
18084;SDS011;9169;44.492;11.372;2022-10-18T05:42:04;78.20;;;25.43;;
18084;SDS011;9169;44.492;11.372;2022-10-18T05:44:32;83.33;;;26.33;;
18084;SDS011;9169;44.492;11.372;2022-10-18T05:46:59;85.40;;;27.90;;
18084;SDS011;9169;44.492;11.372;2022-10-18T05:49:26;87.33;;;26.83;;
18084;SDS011;9169;44.492;11.372;2022-10-18T05:51:53;78.80;;;26.00;;
18084;SDS011;9169;44.492;11.372;2022-10-18T05:54:20;81.60;;;25.10;;
18084;SDS011;9169;44.492;11.372;2022-10-18T05:56:47;82.93;;;26.43;;
18084;SDS011;9169;44.492;11.372;2022-10-18T05:59:15;82.13;;;25.73;;
18084;SDS011;9169;44.492;11.372;2022-10-18T06:01:42;86.70;;;29.17;;
18084;SDS011;9169;44.492;11.372;2022-10-18T06:04:09;80.37;;;26.70;;
18084;SDS011;9169;44.492;11.372;2022-10-18T06:06:36;79.87;;;26.87;;
18084;SDS011;9169;44.492;11.372;2022-10-18T06:09:04;80.57;;;27.20;;
18084;SDS011;9169;44.492;11.372;2022-10-18T06:11:32;79.77;;;25.90;;
18084;SDS011;9169;44.492;11.372;2022-10-18T06:14:00;76.93;;;26.10;;
18084;SDS011;9169;44.492;11.372;2022-10-18T06:16:28;80.60;;;27.43;;
18084;SDS011;9169;44.492;11.372;2022-10-18T06:18:55;78.63;;;26.13;;
18084;SDS011;9169;44.492;11.372;2022-10-18T06:21:24;83.40;;;26.50;;
18084;SDS011;9169;44.492;11.372;2022-10-18T06:23:51;81.77;;;26.90;;
18084;SDS011;9169;44.492;11.372;2022-10-18T06:26:20;84.90;;;28.20;;
18084;SDS011;9169;44.492;11.372;2022-10-18T06:28:48;82.60;;;27.43;;
18084;SDS011;9169;44.492;11.372;2022-10-18T06:31:15;91.17;;;32.83;;
18084;SDS011;9169;44.492;11.372;2022-10-18T06:33:43;81.40;;;26.30;;
18084;SDS011;9169;44.492;11.372;2022-10-18T06:36:12;84.40;;;26.37;;
18084;SDS011;9169;44.492;11.372;2022-10-18T06:38:39;81.57;;;27.20;;
18084;SDS011;9169;44.492;11.372;2022-10-18T06:41:07;84.30;;;26.53;;
18084;SDS011;9169;44.492;11.372;2022-10-18T06:43:34;88.40;;;26.47;;
18084;SDS011;9169;44.492;11.372;2022-10-18T06:46:02;90.23;;;30.30;;
18084;SDS011;9169;44.492;11.372;2022-10-18T06:48:31;188.93;;;126.63;;
18084;SDS011;9169;44.492;11.372;2022-10-18T06:51:00;89.73;;;30.70;;
18084;SDS011;9169;44.492;11.372;2022-10-18T06:53:30;86.00;;;26.47;;
18084;SDS011;9169;44.492;11.372;2022-10-18T06:55:58;83.83;;;27.00;;
18084;SDS011;9169;44.492;11.372;2022-10-18T06:58:26;80.70;;;25.87;;
18084;SDS011;9169;44.492;11.372;2022-10-18T07:00:54;83.97;;;27.50;;
18084;SDS011;9169;44.492;11.372;2022-10-18T07:03:21;83.87;;;25.93;;
18084;SDS011;9169;44.492;11.372;2022-10-18T07:05:48;79.77;;;23.90;;
18084;SDS011;9169;44.492;11.372;2022-10-18T07:08:17;85.63;;;24.60;;
18084;SDS011;9169;44.492;11.372;2022-10-18T07:10:49;77.17;;;24.80;;
18084;SDS011;9169;44.492;11.372;2022-10-18T07:13:17;85.37;;;27.97;;
18084;SDS011;9169;44.492;11.372;2022-10-18T07:15:44;87.67;;;28.40;;
18084;SDS011;9169;44.492;11.372;2022-10-18T07:18:11;82.63;;;29.23;;
18084;SDS011;9169;44.492;11.372;2022-10-18T07:20:38;82.10;;;24.70;;
18084;SDS011;9169;44.492;11.372;2022-10-18T07:23:05;85.57;;;24.87;;
18084;SDS011;9169;44.492;11.372;2022-10-18T07:25:34;84.40;;;26.13;;
18084;SDS011;9169;44.492;11.372;2022-10-18T07:28:02;82.37;;;29.90;;
18084;SDS011;9169;44.492;11.372;2022-10-18T07:30:29;95.30;;;31.97;;
18084;SDS011;9169;44.492;11.372;2022-10-18T07:32:56;95.63;;;43.37;;
18084;SDS011;9169;44.492;11.372;2022-10-18T07:35:23;87.47;;;33.10;;
18084;SDS011;9169;44.492;11.372;2022-10-18T07:37:50;99.17;;;40.80;;
18084;SDS011;9169;44.492;11.372;2022-10-18T07:40:17;91.97;;;40.60;;
18084;SDS011;9169;44.492;11.372;2022-10-18T07:42:45;88.90;;;40.00;;
18084;SDS011;9169;44.492;11.372;2022-10-18T07:45:12;98.40;;;37.63;;
18084;SDS011;9169;44.492;11.372;2022-10-18T07:47:39;95.63;;;39.20;;
18084;SDS011;9169;44.492;11.372;2022-10-18T07:50:06;97.37;;;41.10;;
18084;SDS011;9169;44.492;11.372;2022-10-18T07:52:33;93.17;;;37.83;;
18084;SDS011;9169;44.492;11.372;2022-10-18T07:55:00;94.50;;;40.13;;
18084;SDS011;9169;44.492;11.372;2022-10-18T07:57:27;95.53;;;40.90;;
18084;SDS011;9169;44.492;11.372;2022-10-18T07:59:56;96.27;;;47.60;;
18084;SDS011;9169;44.492;11.372;2022-10-18T08:02:23;105.47;;;56.50;;
18084;SDS011;9169;44.492;11.372;2022-10-18T08:04:49;104.80;;;52.10;;
18084;SDS011;9169;44.492;11.372;2022-10-18T08:07:16;106.27;;;56.37;;
18084;SDS011;9169;44.492;11.372;2022-10-18T08:09:43;101.47;;;45.47;;
18084;SDS011;9169;44.492;11.372;2022-10-18T08:12:10;104.70;;;51.50;;
18084;SDS011;9169;44.492;11.372;2022-10-18T08:14:39;102.00;;;49.10;;
18084;SDS011;9169;44.492;11.372;2022-10-18T08:17:07;103.03;;;49.43;;
18084;SDS011;9169;44.492;11.372;2022-10-18T08:19:35;105.93;;;52.20;;
18084;SDS011;9169;44.492;11.372;2022-10-18T08:22:02;111.70;;;53.63;;
18084;SDS011;9169;44.492;11.372;2022-10-18T08:24:28;111.37;;;52.50;;
18084;SDS011;9169;44.492;11.372;2022-10-18T08:26:56;108.77;;;56.80;;
18084;SDS011;9169;44.492;11.372;2022-10-18T08:29:23;106.67;;;56.03;;
18084;SDS011;9169;44.492;11.372;2022-10-18T08:31:50;105.50;;;58.40;;
18084;SDS011;9169;44.492;11.372;2022-10-18T08:34:18;112.10;;;57.23;;
18084;SDS011;9169;44.492;11.372;2022-10-18T08:36:45;106.43;;;47.97;;
18084;SDS011;9169;44.492;11.372;2022-10-18T08:39:12;134.23;;;57.17;;
18084;SDS011;9169;44.492;11.372;2022-10-18T08:41:48;107.30;;;50.10;;
18084;SDS011;9169;44.492;11.372;2022-10-18T08:44:32;100.90;;;42.20;;
18084;SDS011;9169;44.492;11.372;2022-10-18T08:47:06;115.30;;;55.43;;
18084;SDS011;9169;44.492;11.372;2022-10-18T08:49:42;106.33;;;44.97;;
18084;SDS011;9169;44.492;11.372;2022-10-18T08:52:13;121.20;;;56.70;;
18084;SDS011;9169;44.492;11.372;2022-10-18T08:54:48;107.10;;;52.07;;
18084;SDS011;9169;44.492;11.372;2022-10-18T08:57:20;104.40;;;53.63;;
18084;SDS011;9169;44.492;11.372;2022-10-18T08:59:47;104.73;;;49.00;;
18084;SDS011;9169;44.492;11.372;2022-10-18T09:02:15;110.77;;;57.63;;
18084;SDS011;9169;44.492;11.372;2022-10-18T09:04:53;106.20;;;55.70;;
18084;SDS011;9169;44.492;11.372;2022-10-18T09:07:33;105.90;;;56.43;;
18084;SDS011;9169;44.492;11.372;2022-10-18T09:10:13;102.80;;;52.50;;
18084;SDS011;9169;44.492;11.372;2022-10-18T09:12:51;105.00;;;50.63;;
18084;SDS011;9169;44.492;11.372;2022-10-18T09:15:28;103.90;;;50.53;;
18084;SDS011;9169;44.492;11.372;2022-10-18T09:18:08;98.73;;;45.70;;
18084;SDS011;9169;44.492;11.372;2022-10-18T09:20:48;106.70;;;56.03;;
18084;SDS011;9169;44.492;11.372;2022-10-18T09:23:19;107.30;;;48.73;;
18084;SDS011;9169;44.492;11.372;2022-10-18T09:25:48;100.80;;;39.77;;
18084;SDS011;9169;44.492;11.372;2022-10-18T09:28:23;103.70;;;47.60;;
18084;SDS011;9169;44.492;11.372;2022-10-18T09:30:59;102.07;;;47.27;;
18084;SDS011;9169;44.492;11.372;2022-10-18T09:33:37;97.57;;;34.80;;
18084;SDS011;9169;44.492;11.372;2022-10-18T09:36:15;91.37;;;27.60;;
18084;SDS011;9169;44.492;11.372;2022-10-18T09:38:47;94.00;;;26.43;;
18084;SDS011;9169;44.492;11.372;2022-10-18T09:41:18;99.00;;;34.07;;
18084;SDS011;9169;44.492;11.372;2022-10-18T09:43:50;99.27;;;33.00;;
18084;SDS011;9169;44.492;11.372;2022-10-18T09:46:22;96.67;;;33.90;;
18084;SDS011;9169;44.492;11.372;2022-10-18T09:48:53;104.60;;;39.47;;
18084;SDS011;9169;44.492;11.372;2022-10-18T09:51:25;102.43;;;36.20;;
18084;SDS011;9169;44.492;11.372;2022-10-18T09:53:59;102.83;;;37.17;;
18084;SDS011;9169;44.492;11.372;2022-10-18T09:56:32;107.17;;;39.77;;
18084;SDS011;9169;44.492;11.372;2022-10-18T09:59:04;109.50;;;37.30;;
18084;SDS011;9169;44.492;11.372;2022-10-18T10:01:40;103.87;;;39.60;;
18084;SDS011;9169;44.492;11.372;2022-10-18T10:04:08;106.47;;;34.73;;
18084;SDS011;9169;44.492;11.372;2022-10-18T10:06:36;102.87;;;35.37;;
18084;SDS011;9169;44.492;11.372;2022-10-18T10:09:04;104.37;;;36.33;;
18084;SDS011;9169;44.492;11.372;2022-10-18T10:11:34;102.77;;;34.97;;
18084;SDS011;9169;44.492;11.372;2022-10-18T10:14:11;110.63;;;39.63;;
18084;SDS011;9169;44.492;11.372;2022-10-18T10:16:45;103.33;;;38.83;;
18084;SDS011;9169;44.492;11.372;2022-10-18T10:19:16;111.63;;;42.20;;
18084;SDS011;9169;44.492;11.372;2022-10-18T10:21:51;109.23;;;41.10;;
18084;SDS011;9169;44.492;11.372;2022-10-18T10:24:25;138.40;;;57.87;;
18084;SDS011;9169;44.492;11.372;2022-10-18T10:27:03;103.87;;;38.77;;
18084;SDS011;9169;44.492;11.372;2022-10-18T10:32:22;108.47;;;42.43;;
18084;SDS011;9169;44.492;11.372;2022-10-18T10:34:51;107.20;;;40.57;;
18084;SDS011;9169;44.492;11.372;2022-10-18T10:37:28;109.30;;;42.20;;
18084;SDS011;9169;44.492;11.372;2022-10-18T10:40:09;112.70;;;44.40;;
18084;SDS011;9169;44.492;11.372;2022-10-18T10:42:56;113.27;;;42.17;;
18084;SDS011;9169;44.492;11.372;2022-10-18T10:45:29;111.70;;;43.50;;
18084;SDS011;9169;44.492;11.372;2022-10-18T10:48:03;116.47;;;45.03;;
18084;SDS011;9169;44.492;11.372;2022-10-18T10:50:33;115.07;;;42.33;;
18084;SDS011;9169;44.492;11.372;2022-10-18T10:53:28;110.53;;;41.03;;
18084;SDS011;9169;44.492;11.372;2022-10-18T10:56:00;116.70;;;47.87;;
18084;SDS011;9169;44.492;11.372;2022-10-18T10:58:32;113.30;;;42.43;;
18084;SDS011;9169;44.492;11.372;2022-10-18T11:01:16;117.17;;;45.93;;
18084;SDS011;9169;44.492;11.372;2022-10-18T11:03:54;118.80;;;44.70;;
18084;SDS011;9169;44.492;11.372;2022-10-18T11:09:26;120.30;;;46.10;;
18084;SDS011;9169;44.492;11.372;2022-10-18T11:12:01;119.00;;;47.10;;
18084;SDS011;9169;44.492;11.372;2022-10-18T11:14:40;113.50;;;44.13;;
18084;SDS011;9169;44.492;11.372;2022-10-18T11:17:15;118.90;;;42.27;;
18084;SDS011;9169;44.492;11.372;2022-10-18T11:19:58;118.00;;;46.20;;
18084;SDS011;9169;44.492;11.372;2022-10-18T11:22:37;115.07;;;45.30;;
18084;SDS011;9169;44.492;11.372;2022-10-18T11:25:11;117.77;;;46.40;;
18084;SDS011;9169;44.492;11.372;2022-10-18T11:27:41;112.70;;;43.57;;
18084;SDS011;9169;44.492;11.372;2022-10-18T11:30:22;118.37;;;47.87;;
18084;SDS011;9169;44.492;11.372;2022-10-18T11:33:14;124.67;;;45.43;;
18084;SDS011;9169;44.492;11.372;2022-10-18T11:35:48;118.40;;;47.17;;
18084;SDS011;9169;44.492;11.372;2022-10-18T11:38:28;118.60;;;43.60;;
18084;SDS011;9169;44.492;11.372;2022-10-18T11:43:57;113.20;;;44.60;;
18084;SDS011;9169;44.492;11.372;2022-10-18T11:46:30;122.13;;;44.60;;
18084;SDS011;9169;44.492;11.372;2022-10-18T11:49:17;115.43;;;44.00;;
18084;SDS011;9169;44.492;11.372;2022-10-18T11:52:00;113.13;;;42.00;;
18084;SDS011;9169;44.492;11.372;2022-10-18T11:54:44;115.67;;;47.03;;
18084;SDS011;9169;44.492;11.372;2022-10-18T11:57:30;119.23;;;46.77;;
18084;SDS011;9169;44.492;11.372;2022-10-18T12:00:14;115.70;;;45.90;;
18084;SDS011;9169;44.492;11.372;2022-10-18T12:05:52;117.87;;;49.33;;
18084;SDS011;9169;44.492;11.372;2022-10-18T12:08:24;121.20;;;47.60;;
18084;SDS011;9169;44.492;11.372;2022-10-18T12:10:54;117.97;;;48.23;;
18084;SDS011;9169;44.492;11.372;2022-10-18T12:13:26;115.77;;;44.23;;
18084;SDS011;9169;44.492;11.372;2022-10-18T12:15:59;128.30;;;52.13;;
18084;SDS011;9169;44.492;11.372;2022-10-18T12:18:29;118.00;;;47.57;;
18084;SDS011;9169;44.492;11.372;2022-10-18T12:20:58;119.27;;;45.37;;
18084;SDS011;9169;44.492;11.372;2022-10-18T12:23:29;122.43;;;45.60;;
18084;SDS011;9169;44.492;11.372;2022-10-18T12:26:02;122.00;;;47.30;;
18084;SDS011;9169;44.492;11.372;2022-10-18T12:28:34;121.90;;;49.73;;
18084;SDS011;9169;44.492;11.372;2022-10-18T12:31:19;119.90;;;47.27;;
18084;SDS011;9169;44.492;11.372;2022-10-18T12:33:51;123.53;;;50.53;;
18084;SDS011;9169;44.492;11.372;2022-10-18T12:36:25;122.10;;;50.40;;
18084;SDS011;9169;44.492;11.372;2022-10-18T12:39:11;116.97;;;46.70;;
18084;SDS011;9169;44.492;11.372;2022-10-18T12:41:45;122.80;;;54.83;;
18084;SDS011;9169;44.492;11.372;2022-10-18T12:44:18;126.00;;;50.73;;
18084;SDS011;9169;44.492;11.372;2022-10-18T12:46:47;130.97;;;63.00;;
18084;SDS011;9169;44.492;11.372;2022-10-18T12:49:20;142.13;;;85.27;;
18084;SDS011;9169;44.492;11.372;2022-10-18T12:51:53;141.50;;;80.13;;
18084;SDS011;9169;44.492;11.372;2022-10-18T12:54:24;138.27;;;80.93;;
18084;SDS011;9169;44.492;11.372;2022-10-18T12:56:53;138.40;;;70.20;;
18084;SDS011;9169;44.492;11.372;2022-10-18T12:59:39;149.20;;;95.60;;
18084;SDS011;9169;44.492;11.372;2022-10-18T13:02:19;141.90;;;87.47;;
18084;SDS011;9169;44.492;11.372;2022-10-18T13:04:48;134.77;;;81.47;;
18084;SDS011;9169;44.492;11.372;2022-10-18T13:07:20;136.67;;;81.83;;
18084;SDS011;9169;44.492;11.372;2022-10-18T13:13:12;138.57;;;72.90;;
18084;SDS011;9169;44.492;11.372;2022-10-18T13:15:59;126.33;;;75.53;;
18084;SDS011;9169;44.492;11.372;2022-10-18T13:18:33;122.83;;;67.13;;
18084;SDS011;9169;44.492;11.372;2022-10-18T13:21:14;118.50;;;55.80;;
18084;SDS011;9169;44.492;11.372;2022-10-18T13:23:48;121.20;;;63.77;;
18084;SDS011;9169;44.492;11.372;2022-10-18T13:26:29;121.67;;;63.80;;
18084;SDS011;9169;44.492;11.372;2022-10-18T13:29:20;117.43;;;60.10;;
18084;SDS011;9169;44.492;11.372;2022-10-18T13:32:17;115.40;;;58.73;;
18084;SDS011;9169;44.492;11.372;2022-10-18T13:34:52;123.80;;;70.00;;
18084;SDS011;9169;44.492;11.372;2022-10-18T13:37:20;138.70;;;83.80;;
18084;SDS011;9169;44.492;11.372;2022-10-18T13:39:49;118.07;;;59.30;;
18084;SDS011;9169;44.492;11.372;2022-10-18T13:42:37;122.20;;;64.63;;
18084;SDS011;9169;44.492;11.372;2022-10-18T13:51:30;121.33;;;59.80;;
18084;SDS011;9169;44.492;11.372;2022-10-18T13:54:12;117.23;;;52.07;;
18084;SDS011;9169;44.492;11.372;2022-10-18T13:56:58;126.40;;;52.60;;
18084;SDS011;9169;44.492;11.372;2022-10-18T13:59:42;125.20;;;57.63;;
18084;SDS011;9169;44.492;11.372;2022-10-18T14:02:30;117.47;;;46.10;;
18084;SDS011;9169;44.492;11.372;2022-10-18T14:05:12;117.13;;;52.07;;
18084;SDS011;9169;44.492;11.372;2022-10-18T14:07:47;118.53;;;47.60;;
18084;SDS011;9169;44.492;11.372;2022-10-18T14:10:18;125.80;;;63.20;;
18084;SDS011;9169;44.492;11.372;2022-10-18T14:12:49;124.90;;;58.37;;
18084;SDS011;9169;44.492;11.372;2022-10-18T14:15:22;127.70;;;61.17;;
18084;SDS011;9169;44.492;11.372;2022-10-18T14:17:51;119.73;;;59.70;;
18084;SDS011;9169;44.492;11.372;2022-10-18T14:20:25;124.30;;;62.60;;
18084;SDS011;9169;44.492;11.372;2022-10-18T14:22:59;125.90;;;64.83;;
18084;SDS011;9169;44.492;11.372;2022-10-18T14:25:30;127.77;;;65.80;;
18084;SDS011;9169;44.492;11.372;2022-10-18T14:28:08;118.70;;;62.50;;
18084;SDS011;9169;44.492;11.372;2022-10-18T14:30:49;134.60;;;75.40;;
18084;SDS011;9169;44.492;11.372;2022-10-18T14:33:29;125.57;;;64.60;;
18084;SDS011;9169;44.492;11.372;2022-10-18T14:36:02;115.63;;;48.73;;
18084;SDS011;9169;44.492;11.372;2022-10-18T14:38:33;112.40;;;43.13;;
18084;SDS011;9169;44.492;11.372;2022-10-18T14:41:12;108.77;;;45.90;;
18084;SDS011;9169;44.492;11.372;2022-10-18T14:43:41;112.73;;;46.27;;
18084;SDS011;9169;44.492;11.372;2022-10-18T14:46:09;106.70;;;40.57;;
18084;SDS011;9169;44.492;11.372;2022-10-18T14:48:41;111.53;;;47.40;;
18084;SDS011;9169;44.492;11.372;2022-10-18T14:51:20;113.73;;;49.87;;
18084;SDS011;9169;44.492;11.372;2022-10-18T14:53:47;117.80;;;48.57;;
18084;SDS011;9169;44.492;11.372;2022-10-18T14:56:23;129.60;;;79.60;;
18084;SDS011;9169;44.492;11.372;2022-10-18T14:58:52;121.20;;;72.40;;
18084;SDS011;9169;44.492;11.372;2022-10-18T15:01:27;126.50;;;69.70;;
18084;SDS011;9169;44.492;11.372;2022-10-18T15:03:56;135.83;;;93.93;;